createdAt,value
2019-03-24T00:00:25.922Z,3.14
2019-03-24T00:02:54.399Z,3.12
2019-03-24T00:05:27.877Z,3.08
2019-03-24T00:07:53.614Z,3.06
2019-03-24T00:10:22.329Z,3.02
2019-03-24T00:12:50.788Z,3.00
2019-03-24T00:15:26.366Z,2.99
2019-03-24T00:17:49.663Z,2.93
2019-03-24T00:20:18.305Z,2.92
2019-03-24T00:22:46.993Z,2.88
2019-03-24T00:25:15.503Z,2.85
2019-03-24T00:27:44.042Z,2.84
2019-03-24T00:30:13.351Z,2.85
2019-03-24T00:32:41.962Z,2.82
2019-03-24T00:35:10.590Z,2.82
2019-03-24T00:37:41.493Z,2.82
2019-03-24T00:40:10.344Z,2.84
2019-03-24T00:42:39.025Z,2.82
2019-03-24T00:45:11.263Z,2.81
2019-03-24T00:47:39.409Z,2.81
2019-03-24T00:50:09.335Z,2.78
2019-03-24T00:52:37.890Z,2.77
2019-03-24T00:55:09.394Z,2.78
2019-03-24T00:57:38.054Z,2.78
2019-03-24T01:00:08.052Z,2.75
2019-03-24T01:02:36.607Z,2.71
2019-03-24T01:05:09.770Z,2.72
2019-03-24T01:07:38.276Z,2.71
2019-03-24T01:10:08.980Z,2.70
2019-03-24T01:12:37.597Z,2.68
2019-03-24T01:15:07.828Z,2.68
2019-03-24T01:17:37.464Z,2.69
2019-03-24T01:20:07.975Z,2.71
2019-03-24T01:22:36.787Z,2.73
2019-03-24T01:25:09.800Z,2.69
2019-03-24T01:27:40.159Z,2.67
2019-03-24T01:30:09.238Z,2.64
2019-03-24T01:32:37.764Z,2.61
2019-03-24T01:35:07.076Z,2.59
2019-03-24T01:37:35.612Z,2.57
2019-03-24T01:40:06.018Z,2.56
2019-03-24T01:42:34.487Z,2.54
2019-03-24T01:45:03.403Z,2.50
2019-03-24T01:47:32.007Z,2.45
2019-03-24T01:50:00.499Z,2.44
2019-03-24T01:52:29.062Z,2.44
2019-03-24T01:54:57.673Z,2.47
2019-03-24T01:57:26.212Z,2.46
2019-03-24T01:59:54.753Z,2.47
2019-03-24T02:02:23.395Z,2.41
2019-03-24T02:04:52.003Z,2.40
2019-03-24T02:07:20.651Z,2.40
2019-03-24T02:09:49.269Z,2.42
2019-03-24T02:12:17.805Z,2.43
2019-03-24T02:14:46.271Z,2.43
2019-03-24T02:17:14.893Z,2.44
2019-03-24T02:19:43.489Z,2.45
2019-03-24T02:22:12.050Z,2.44
2019-03-24T02:24:40.692Z,2.39
2019-03-24T02:27:09.238Z,2.34
2019-03-24T02:29:37.718Z,2.31
2019-03-24T02:32:06.247Z,2.29
2019-03-24T02:34:37.870Z,2.28
2019-03-24T02:37:09.032Z,2.26
2019-03-24T02:39:37.644Z,2.21
2019-03-24T02:42:06.375Z,2.17
2019-03-24T02:44:34.840Z,2.12
2019-03-24T02:47:03.507Z,2.09
2019-03-24T02:49:32.024Z,2.06
2019-03-24T02:52:00.595Z,2.05
2019-03-24T02:54:29.202Z,2.04
2019-03-24T02:56:57.801Z,2.00
2019-03-24T02:59:26.384Z,1.95
2019-03-24T03:01:55.093Z,1.94
2019-03-24T03:04:23.641Z,1.91
2019-03-24T03:06:52.266Z,1.90
2019-03-24T03:09:20.810Z,1.92
2019-03-24T03:11:49.338Z,1.94
2019-03-24T03:14:19.092Z,1.93
2019-03-24T03:16:47.608Z,1.95
2019-03-24T03:19:16.188Z,1.97
2019-03-24T03:21:44.755Z,2.00
2019-03-24T03:24:13.359Z,2.05
2019-03-24T03:26:41.968Z,2.05
2019-03-24T03:29:10.498Z,2.04
2019-03-24T03:31:39.149Z,2.03
2019-03-24T03:34:07.997Z,2.06
2019-03-24T03:36:36.569Z,2.10
2019-03-24T03:39:06.748Z,2.14
2019-03-24T03:41:35.360Z,2.22
2019-03-24T03:44:04.255Z,2.28
2019-03-24T03:46:32.711Z,2.36
2019-03-24T03:49:01.239Z,2.42
2019-03-24T03:51:29.703Z,2.50
2019-03-24T03:53:59.221Z,2.57
2019-03-24T03:56:28.152Z,2.60
2019-03-24T03:58:56.650Z,2.64
2019-03-24T04:01:25.247Z,2.68
2019-03-24T04:03:53.722Z,2.69
2019-03-24T04:06:22.254Z,2.71
2019-03-24T04:08:50.868Z,2.73
2019-03-24T04:11:21.494Z,2.76
2019-03-24T04:13:50.096Z,2.77
2019-03-24T04:16:18.665Z,2.82
2019-03-24T04:18:47.198Z,2.87
2019-03-24T04:21:15.747Z,2.90
2019-03-24T04:23:45.666Z,2.94
2019-03-24T04:26:14.121Z,2.94
2019-03-24T04:28:42.700Z,2.96
2019-03-24T04:31:11.236Z,2.99
2019-03-24T04:33:39.703Z,3.00
2019-03-24T04:36:08.307Z,3.04
2019-03-24T04:38:36.848Z,3.07
2019-03-24T04:41:11.268Z,3.07
2019-03-24T04:43:39.798Z,3.04
2019-03-24T04:46:08.335Z,3.08
2019-03-24T04:48:38.163Z,3.10
2019-03-24T04:51:06.745Z,3.12
2019-03-24T04:53:35.274Z,3.16
2019-03-24T04:56:03.744Z,3.22
2019-03-24T04:58:32.215Z,3.21
2019-03-24T05:01:00.756Z,3.25
2019-03-24T05:03:29.265Z,3.30
2019-03-24T05:05:57.870Z,3.33
2019-03-24T05:08:26.780Z,3.35
2019-03-24T05:10:55.314Z,3.40
2019-03-24T05:13:23.782Z,3.40
2019-03-24T05:15:52.391Z,3.41
2019-03-24T05:18:20.930Z,3.45
2019-03-24T05:20:49.395Z,3.45
2019-03-24T05:23:17.867Z,3.50
2019-03-24T05:25:46.340Z,3.54
2019-03-24T05:28:14.903Z,3.63
2019-03-24T05:30:43.380Z,3.70
2019-03-24T05:33:11.885Z,3.87
2019-03-24T05:35:40.562Z,4.32
2019-03-24T05:38:09.252Z,4.55
2019-03-24T05:40:37.829Z,4.97
2019-03-24T05:43:06.375Z,5.21
2019-03-24T05:45:34.983Z,5.40
2019-03-24T05:48:03.469Z,5.67
2019-03-24T05:50:32.033Z,5.81
2019-03-24T05:53:00.569Z,6.03
2019-03-24T05:55:30.780Z,6.24
2019-03-24T05:58:06.396Z,6.39
2019-03-24T06:00:36.584Z,6.54
2019-03-24T06:03:05.222Z,6.67
2019-03-24T06:05:33.700Z,6.75
2019-03-24T06:08:02.230Z,6.82
2019-03-24T06:10:30.867Z,6.89
2019-03-24T06:12:59.417Z,6.97
2019-03-24T06:15:28.045Z,7.03
2019-03-24T06:17:56.506Z,7.08
2019-03-24T06:20:25.149Z,7.12
2019-03-24T06:22:53.626Z,7.17
2019-03-24T06:25:22.183Z,7.16
2019-03-24T06:27:50.704Z,7.17
2019-03-24T06:30:19.316Z,7.14
2019-03-24T06:32:47.786Z,7.06
2019-03-24T06:35:16.392Z,7.07
2019-03-24T06:37:44.932Z,7.10
2019-03-24T06:40:13.543Z,7.12
2019-03-24T06:42:42.108Z,7.16
2019-03-24T06:45:11.022Z,7.21
2019-03-24T06:47:39.570Z,7.26
2019-03-24T06:50:08.680Z,7.25
2019-03-24T06:52:37.321Z,7.23
2019-03-24T06:55:05.923Z,7.21
2019-03-24T06:57:34.533Z,7.20
2019-03-24T07:00:03.216Z,7.20
2019-03-24T07:02:31.697Z,7.17
2019-03-24T07:05:00.379Z,7.15
2019-03-24T07:07:28.971Z,7.09
2019-03-24T07:09:57.546Z,7.04
2019-03-24T07:12:26.225Z,7.02
2019-03-24T07:14:54.779Z,7.02
2019-03-24T07:17:23.315Z,7.04
2019-03-24T07:19:51.918Z,7.04
2019-03-24T07:22:21.202Z,7.07
2019-03-24T07:24:49.686Z,7.06
2019-03-24T07:27:18.251Z,7.08
2019-03-24T07:29:46.776Z,7.08
2019-03-24T07:32:15.391Z,7.08
2019-03-24T07:34:43.892Z,7.11
2019-03-24T07:37:12.428Z,7.09
2019-03-24T07:39:40.978Z,7.12
2019-03-24T07:42:09.632Z,7.15
2019-03-24T07:44:38.238Z,7.17
2019-03-24T07:47:14.629Z,7.20
2019-03-24T07:49:43.741Z,7.22
2019-03-24T07:52:12.343Z,7.23
2019-03-24T07:54:41.490Z,7.27
2019-03-24T07:57:10.096Z,7.29
2019-03-24T07:59:38.799Z,7.31
2019-03-24T08:02:07.408Z,7.35
2019-03-24T08:04:35.945Z,7.39
2019-03-24T08:07:04.564Z,7.43
2019-03-24T08:09:33.175Z,7.45
2019-03-24T08:12:01.888Z,7.45
2019-03-24T08:14:30.385Z,7.44
2019-03-24T08:16:59.020Z,7.45
2019-03-24T08:19:27.665Z,7.44
2019-03-24T08:21:56.208Z,7.46
2019-03-24T08:24:24.812Z,7.47
2019-03-24T08:26:53.361Z,7.48
2019-03-24T08:29:21.975Z,7.50
2019-03-24T08:31:53.402Z,7.52
2019-03-24T08:34:22.012Z,7.55
2019-03-24T08:36:50.652Z,7.60
2019-03-24T08:39:22.726Z,7.64
2019-03-24T08:41:51.290Z,7.68
2019-03-24T08:44:19.832Z,7.69
2019-03-24T08:46:48.344Z,7.79
2019-03-24T08:49:16.895Z,7.83
2019-03-24T08:51:51.206Z,7.90
2019-03-24T08:54:15.789Z,7.96
2019-03-24T08:56:44.406Z,8.00
2019-03-24T08:59:13.038Z,8.04
2019-03-24T09:01:41.642Z,8.03
2019-03-24T09:04:12.951Z,8.05
2019-03-24T09:06:41.438Z,8.06
2019-03-24T09:09:09.980Z,8.05
2019-03-24T09:11:38.590Z,8.08
2019-03-24T09:14:07.388Z,8.15
2019-03-24T09:16:36.019Z,8.15
2019-03-24T09:19:04.696Z,8.18
2019-03-24T09:21:33.246Z,8.16
2019-03-24T09:24:01.925Z,8.16
2019-03-24T09:26:30.492Z,8.09
2019-03-24T09:28:59.394Z,8.06
2019-03-24T09:31:28.031Z,8.02
2019-03-24T09:33:56.598Z,8.03
2019-03-24T09:36:25.216Z,8.11
2019-03-24T09:38:53.759Z,8.19
2019-03-24T09:41:22.389Z,8.39
2019-03-24T09:43:50.956Z,8.57
2019-03-24T09:46:19.672Z,8.89
2019-03-24T09:48:48.216Z,9.19
2019-03-24T09:51:17.556Z,9.50
2019-03-24T09:53:46.052Z,9.74
2019-03-24T09:56:14.732Z,9.99
2019-03-24T09:58:43.329Z,10.13
2019-03-24T10:01:11.875Z,10.30
2019-03-24T10:03:40.422Z,10.42
2019-03-24T10:06:09.059Z,10.48
2019-03-24T10:08:46.782Z,10.64
2019-03-24T10:11:07.872Z,10.75
2019-03-24T10:13:36.422Z,10.75
2019-03-24T10:16:05.047Z,10.86
2019-03-24T10:18:34.476Z,10.61
2019-03-24T10:21:03.117Z,10.54
2019-03-24T10:23:31.654Z,10.68
2019-03-24T10:26:00.294Z,10.75
2019-03-24T10:28:28.820Z,10.72
2019-03-24T10:30:57.379Z,10.81
2019-03-24T10:33:25.829Z,10.85
2019-03-24T10:35:54.368Z,10.88
2019-03-24T10:38:22.910Z,10.94
2019-03-24T10:40:51.520Z,10.93
2019-03-24T10:43:22.198Z,10.95
2019-03-24T10:45:50.384Z,10.87
2019-03-24T10:48:18.911Z,10.89
2019-03-24T10:50:47.527Z,10.84
2019-03-24T10:53:16.065Z,10.86
2019-03-24T10:55:44.704Z,10.77
2019-03-24T10:58:14.934Z,10.90
2019-03-24T11:00:44.039Z,10.94
2019-03-24T11:03:12.680Z,10.96
2019-03-24T11:05:41.369Z,10.94
2019-03-24T11:08:09.925Z,10.83
2019-03-24T11:10:38.546Z,10.85
2019-03-24T11:13:07.322Z,10.88
2019-03-24T11:15:35.899Z,11.03
2019-03-24T11:18:04.613Z,11.05
2019-03-24T11:20:33.152Z,11.14
2019-03-24T11:23:01.694Z,11.18
2019-03-24T11:25:30.618Z,11.20
2019-03-24T11:27:59.094Z,11.04
2019-03-24T11:30:27.637Z,10.97
2019-03-24T11:32:56.277Z,10.98
2019-03-24T11:35:24.931Z,10.89
2019-03-24T11:37:53.552Z,10.91
2019-03-24T11:40:22.142Z,10.90
2019-03-24T11:42:50.765Z,10.86
2019-03-24T11:45:19.376Z,10.81
2019-03-24T11:47:47.873Z,10.81
2019-03-24T11:50:16.498Z,10.84
2019-03-24T11:52:45.053Z,10.85
2019-03-24T11:55:13.860Z,10.90
2019-03-24T11:57:42.504Z,10.83
2019-03-24T12:00:17.980Z,10.85
2019-03-24T12:02:48.784Z,10.85
2019-03-24T12:05:17.663Z,10.92
2019-03-24T12:07:46.271Z,10.88
2019-03-24T12:10:15.184Z,10.70
2019-03-24T12:12:43.656Z,10.69
2019-03-24T12:15:12.565Z,10.81
2019-03-24T12:17:42.884Z,10.78
2019-03-24T12:20:11.593Z,10.84
2019-03-24T12:22:40.215Z,10.73
2019-03-24T12:25:09.316Z,10.64
2019-03-24T12:27:37.780Z,10.64
2019-03-24T12:30:08.220Z,10.60
2019-03-24T12:32:36.852Z,10.64
2019-03-24T12:35:09.457Z,10.56
2019-03-24T12:37:37.997Z,10.57
2019-03-24T12:40:10.580Z,10.56
2019-03-24T12:42:39.667Z,10.51
2019-03-24T12:45:10.418Z,10.61
2019-03-24T12:47:39.029Z,10.68
2019-03-24T12:50:10.336Z,10.79
2019-03-24T12:52:39.088Z,10.90
2019-03-24T12:55:07.999Z,10.80
2019-03-24T12:57:36.655Z,10.74
2019-03-24T13:00:07.409Z,10.77
2019-03-24T13:02:36.012Z,10.83
2019-03-24T13:05:07.289Z,10.77
2019-03-24T13:07:35.827Z,10.80
2019-03-24T13:10:07.431Z,10.72
2019-03-24T13:12:36.060Z,10.54
2019-03-24T13:15:07.163Z,10.52
2019-03-24T13:17:35.784Z,10.39
2019-03-24T13:20:19.503Z,10.41
2019-03-24T13:22:39.369Z,10.36
2019-03-24T13:25:08.176Z,10.33
2019-03-24T13:27:36.782Z,10.40
2019-03-24T13:30:08.807Z,10.37
2019-03-24T13:32:37.426Z,10.49
2019-03-24T13:35:06.076Z,10.52
2019-03-24T13:37:34.617Z,10.57
2019-03-24T13:40:03.519Z,10.66
2019-03-24T13:42:32.175Z,10.73
2019-03-24T13:45:00.706Z,10.76
2019-03-24T13:47:29.321Z,10.82
2019-03-24T13:49:57.791Z,10.85
2019-03-24T13:52:26.401Z,10.94
2019-03-24T13:54:54.991Z,11.02
2019-03-24T13:57:23.600Z,11.08
2019-03-24T13:59:52.151Z,11.10
2019-03-24T14:02:20.925Z,11.09
2019-03-24T14:04:49.455Z,11.08
2019-03-24T14:07:18.089Z,11.03
2019-03-24T14:09:46.625Z,11.11
2019-03-24T14:12:15.243Z,11.19
2019-03-24T14:14:43.811Z,11.19
2019-03-24T14:17:12.448Z,11.21
2019-03-24T14:19:41.055Z,11.22
2019-03-24T14:22:09.598Z,11.20
2019-03-24T14:24:38.135Z,11.14
2019-03-24T14:27:06.807Z,11.12
2019-03-24T14:29:35.419Z,11.11
2019-03-24T14:32:03.989Z,11.14
2019-03-24T14:34:32.595Z,11.09
2019-03-24T14:37:01.206Z,11.08
2019-03-24T14:39:29.742Z,11.10
2019-03-24T14:41:58.356Z,11.10
2019-03-24T14:44:26.897Z,11.10
2019-03-24T14:46:55.516Z,11.14
2019-03-24T14:49:26.838Z,11.18
2019-03-24T14:51:55.479Z,11.17
2019-03-24T14:54:24.076Z,11.15
2019-03-24T14:56:54.802Z,11.07
2019-03-24T14:59:22.950Z,11.07
2019-03-24T15:01:51.559Z,11.06
2019-03-24T15:04:20.184Z,11.04
2019-03-24T15:06:48.832Z,11.02
2019-03-24T15:09:17.538Z,10.98
2019-03-24T15:11:46.050Z,10.95
2019-03-24T15:14:14.660Z,10.86
2019-03-24T15:16:43.201Z,10.84
2019-03-24T15:19:11.791Z,10.83
2019-03-24T15:21:41.842Z,10.79
2019-03-24T15:24:10.387Z,10.75
2019-03-24T15:26:38.967Z,10.69
2019-03-24T15:29:07.577Z,10.65
2019-03-24T15:31:36.192Z,10.64
2019-03-24T15:34:04.803Z,10.65
2019-03-24T15:36:33.423Z,10.62
2019-03-24T15:39:01.955Z,10.59
2019-03-24T15:41:30.597Z,10.57
2019-03-24T15:43:59.151Z,10.54
2019-03-24T15:46:27.698Z,10.53
2019-03-24T15:48:56.238Z,10.51
2019-03-24T15:51:24.849Z,10.45
2019-03-24T15:53:53.321Z,10.36
2019-03-24T15:56:21.932Z,10.31
2019-03-24T15:58:50.540Z,10.27
2019-03-24T16:01:19.088Z,10.20
2019-03-24T16:03:47.861Z,10.13
2019-03-24T16:06:16.331Z,10.10
2019-03-24T16:08:45.918Z,10.06
2019-03-24T16:11:16.096Z,10.03
2019-03-24T16:13:44.724Z,9.98
2019-03-24T16:16:13.263Z,9.94
2019-03-24T16:18:41.730Z,9.92
2019-03-24T16:21:10.270Z,9.90
2019-03-24T16:23:38.911Z,9.82
2019-03-24T16:26:07.518Z,9.73
2019-03-24T16:28:36.083Z,9.71
2019-03-24T16:31:04.717Z,9.67
2019-03-24T16:33:33.241Z,9.65
2019-03-24T16:36:01.786Z,9.60
2019-03-24T16:38:30.419Z,9.56
2019-03-24T16:40:58.888Z,9.53
2019-03-24T16:43:37.958Z,9.49
2019-03-24T16:45:57.785Z,9.49
2019-03-24T16:48:36.394Z,9.48
2019-03-24T16:50:56.730Z,9.47
2019-03-24T16:53:25.267Z,9.42
2019-03-24T16:55:53.831Z,9.40
2019-03-24T16:58:22.469Z,9.34
2019-03-24T17:00:51.090Z,9.28
2019-03-24T17:03:19.725Z,9.26
2019-03-24T17:05:48.337Z,9.22
2019-03-24T17:08:16.909Z,9.16
2019-03-24T17:10:45.508Z,9.11
2019-03-24T17:13:14.102Z,9.07
2019-03-24T17:15:42.715Z,9.03
2019-03-24T17:18:11.322Z,9.00
2019-03-24T17:20:39.997Z,8.97
2019-03-24T17:23:08.611Z,8.94
2019-03-24T17:25:37.084Z,8.92
2019-03-24T17:28:05.699Z,8.88
2019-03-24T17:30:34.369Z,8.86
2019-03-24T17:33:03.000Z,8.83
2019-03-24T17:35:31.606Z,8.76
2019-03-24T17:38:00.234Z,8.72
2019-03-24T17:40:28.797Z,8.66
2019-03-24T17:42:57.474Z,8.61
2019-03-24T17:45:26.004Z,8.55
2019-03-24T17:47:54.579Z,8.50
2019-03-24T17:50:23.184Z,8.43
2019-03-24T17:52:51.795Z,8.38
2019-03-24T17:55:27.502Z,8.34
2019-03-24T17:57:56.228Z,8.27
2019-03-24T18:00:36.498Z,8.24
2019-03-24T18:03:05.120Z,8.19
2019-03-24T18:05:33.656Z,8.19
2019-03-24T18:08:02.355Z,8.16
2019-03-24T18:10:30.890Z,8.13
2019-03-24T18:12:59.494Z,8.09
2019-03-24T18:15:28.065Z,8.04
2019-03-24T18:17:56.672Z,7.96
2019-03-24T18:20:35.717Z,7.90
2019-03-24T18:23:04.424Z,7.84
2019-03-24T18:25:33.033Z,7.80
2019-03-24T18:28:03.414Z,7.72
2019-03-24T18:30:32.050Z,7.70
2019-03-24T18:33:00.661Z,7.66
2019-03-24T18:35:29.193Z,7.64
2019-03-24T18:37:57.734Z,7.62
2019-03-24T18:40:26.349Z,7.62
2019-03-24T18:42:54.879Z,7.60
2019-03-24T18:45:23.501Z,7.61
2019-03-24T18:47:52.089Z,7.61
2019-03-24T18:50:20.732Z,7.59
2019-03-24T18:52:50.247Z,7.57
2019-03-24T18:55:19.052Z,7.50
2019-03-24T18:57:47.676Z,7.45
2019-03-24T19:00:18.128Z,7.41
2019-03-24T19:02:46.781Z,7.38
2019-03-24T19:05:16.284Z,7.34
2019-03-24T19:07:44.827Z,7.31
2019-03-24T19:10:15.371Z,7.23
2019-03-24T19:12:43.977Z,7.19
2019-03-24T19:15:16.160Z,7.17
2019-03-24T19:17:45.009Z,7.11
2019-03-24T19:20:14.286Z,7.08
2019-03-24T19:22:42.880Z,7.02
2019-03-24T19:25:12.876Z,6.98
2019-03-24T19:27:41.521Z,6.93
2019-03-24T19:30:15.733Z,6.87
2019-03-24T19:32:44.335Z,6.82
2019-03-24T19:35:15.442Z,6.75
2019-03-24T19:37:46.199Z,6.70
2019-03-24T19:40:26.651Z,6.66
2019-03-24T19:42:55.794Z,6.63
2019-03-24T19:45:24.672Z,6.58
2019-03-24T19:47:54.374Z,6.52
2019-03-24T19:50:22.996Z,6.43
2019-03-24T19:52:51.621Z,6.37
2019-03-24T19:55:20.208Z,6.30
2019-03-24T19:57:48.844Z,6.25
2019-03-24T20:00:17.452Z,6.22
2019-03-24T20:02:46.102Z,6.20
2019-03-24T20:05:14.743Z,6.17
2019-03-24T20:07:47.850Z,6.07
2019-03-24T20:10:15.124Z,5.98
2019-03-24T20:12:43.661Z,5.94
2019-03-24T20:15:13.437Z,5.91
2019-03-24T20:17:42.069Z,5.89
2019-03-24T20:20:10.778Z,5.86
2019-03-24T20:22:39.393Z,5.80
2019-03-24T20:25:08.000Z,5.74
2019-03-24T20:27:36.615Z,5.70
2019-03-24T20:30:10.899Z,5.63
2019-03-24T20:32:39.545Z,5.59
2019-03-24T20:35:08.784Z,5.54
2019-03-24T20:37:37.321Z,5.53
2019-03-24T20:40:07.127Z,5.55
2019-03-24T20:42:35.667Z,5.52
2019-03-24T20:45:07.273Z,5.49
2019-03-24T20:47:35.878Z,5.41
2019-03-24T20:50:08.952Z,5.39
2019-03-24T20:52:37.556Z,5.35
2019-03-24T20:55:07.584Z,5.26
2019-03-24T20:57:36.094Z,5.14
2019-03-24T21:00:10.082Z,5.03
2019-03-24T21:02:41.326Z,4.93
2019-03-24T21:05:11.130Z,4.85
2019-03-24T21:07:40.100Z,4.78
2019-03-24T21:10:09.201Z,4.73
2019-03-24T21:12:37.837Z,4.71
2019-03-24T21:15:11.168Z,4.70
2019-03-24T21:17:38.775Z,4.69
2019-03-24T21:20:08.187Z,4.69
2019-03-24T21:22:36.722Z,4.66
2019-03-24T21:25:06.828Z,4.64
2019-03-24T21:27:36.579Z,4.63
2019-03-24T21:30:15.086Z,4.58
2019-03-24T21:32:41.100Z,4.56
2019-03-24T21:35:10.339Z,4.53
2019-03-24T21:37:38.955Z,4.53
2019-03-24T21:40:07.786Z,4.56
2019-03-24T21:42:36.393Z,4.60
2019-03-24T21:45:08.058Z,4.63
2019-03-24T21:47:36.731Z,4.66
2019-03-24T21:50:06.917Z,4.66
2019-03-24T21:52:35.510Z,4.67
2019-03-24T21:55:05.115Z,4.66
2019-03-24T21:57:34.076Z,4.66
2019-03-24T22:00:02.759Z,4.62
2019-03-24T22:02:31.260Z,4.62
2019-03-24T22:04:59.801Z,4.60
2019-03-24T22:07:32.806Z,4.63
2019-03-24T22:09:58.739Z,4.64
2019-03-24T22:12:27.346Z,4.66
2019-03-24T22:14:55.896Z,4.66
2019-03-24T22:17:24.466Z,4.64
2019-03-24T22:19:53.001Z,4.61
2019-03-24T22:22:21.611Z,4.53
2019-03-24T22:24:50.150Z,4.46
2019-03-24T22:27:18.755Z,4.42
2019-03-24T22:29:47.299Z,4.39
2019-03-24T22:32:15.775Z,4.36
2019-03-24T22:34:44.277Z,4.39
2019-03-24T22:37:16.063Z,4.43
2019-03-24T22:39:43.008Z,4.47
2019-03-24T22:42:11.642Z,4.47
2019-03-24T22:44:40.134Z,4.47
2019-03-24T22:47:08.674Z,4.51
2019-03-24T22:49:37.293Z,4.53
2019-03-24T22:52:07.577Z,4.53
2019-03-24T22:54:36.342Z,4.56
2019-03-24T22:57:04.927Z,4.54
2019-03-24T22:59:33.535Z,4.56
2019-03-24T23:02:02.355Z,4.62
2019-03-24T23:04:33.916Z,4.68
2019-03-24T23:07:02.527Z,4.71
2019-03-24T23:09:30.998Z,4.74
2019-03-24T23:11:59.614Z,4.79
2019-03-24T23:14:28.261Z,4.86
2019-03-24T23:16:56.878Z,4.91
2019-03-24T23:19:25.411Z,4.94
2019-03-24T23:21:53.883Z,4.98
2019-03-24T23:24:22.419Z,5.02
2019-03-24T23:26:51.136Z,5.06
2019-03-24T23:29:19.742Z,5.10
2019-03-24T23:31:48.336Z,5.15
2019-03-24T23:34:16.939Z,5.15
2019-03-24T23:36:45.479Z,5.15
2019-03-24T23:39:13.989Z,5.12
2019-03-24T23:41:44.003Z,5.10
2019-03-24T23:44:14.092Z,5.07
2019-03-24T23:46:42.700Z,5.06
2019-03-24T23:49:11.236Z,5.07
2019-03-24T23:51:39.808Z,5.12
2019-03-24T23:54:08.371Z,5.14
2019-03-24T23:56:36.954Z,5.17
2019-03-24T23:59:05.556Z,5.17
